Time;durP1;ratioP1;P1;durP2;ratioP2;P2;SDS_P1;SDS_P2;PMS_P1;PMS_P2;Temp;Humidity;BMP_temperature;BMP_pressure;BME280_temperature;BME280_humidity;BME280_pressure;Samples;Min_cycle;Max_cycle;Signal;HPM_P1;HPM_P2
2021/07/09 00:00:45;;;;;;;0.80;0.80;;;13.50;99.90;;;;;;2064051;28;20170;-68
2021/07/09 00:01:46;;;;;;;0.80;0.80;;;13.50;99.90;;;;;;2064461;28;20182;-69
2021/07/09 00:02:52;;;;;;;0.40;0.40;;;13.50;99.90;;;;;;2064285;28;20202;-68
2021/07/09 00:03:53;;;;;;;0.30;0.30;;;13.50;99.90;;;;;;2064283;28;20178;-69
2021/07/09 00:04:53;;;;;;;1.10;0.87;;;13.50;99.90;;;;;;2063855;28;20501;-69
2021/07/09 00:05:54;;;;;;;0.30;0.30;;;13.40;99.90;;;;;;2064357;28;20202;-68
2021/07/09 00:06:55;;;;;;;0.93;0.60;;;13.40;99.90;;;;;;2064648;28;20688;-68
2021/07/09 00:07:56;;;;;;;1.23;1.13;;;13.40;99.90;;;;;;2056229;28;20210;-68
2021/07/09 00:08:56;;;;;;;0.63;0.63;;;13.40;99.90;;;;;;2056299;28;20697;-68
2021/07/09 00:09:57;;;;;;;1.03;0.97;;;13.40;99.90;;;;;;2064828;28;20514;-68
2021/07/09 00:10:58;;;;;;;1.27;0.93;;;13.50;99.90;;;;;;2064612;28;20179;-68
2021/07/09 00:11:59;;;;;;;0.40;0.40;;;13.50;99.90;;;;;;2064764;28;20186;-68
2021/07/09 00:12:59;;;;;;;0.63;0.63;;;13.50;99.90;;;;;;2064810;28;20552;-68
2021/07/09 00:14:00;;;;;;;0.80;0.80;;;13.50;99.90;;;;;;2064908;28;20182;-68
2021/07/09 00:15:01;;;;;;;0.70;0.70;;;13.50;99.90;;;;;;2056119;28;20186;-68
2021/07/09 00:16:02;;;;;;;0.40;0.40;;;13.50;99.90;;;;;;2056124;28;20199;-68
2021/07/09 00:17:03;;;;;;;0.82;0.82;;;13.60;99.90;;;;;;2055780;28;20430;-69
2021/07/09 00:18:04;;;;;;;0.47;0.47;;;13.60;99.90;;;;;;2056106;28;20278;-69
2021/07/09 00:19:06;;;;;;;0.63;0.63;;;13.60;99.90;;;;;;2056251;28;20187;-68
2021/07/09 00:20:07;;;;;;;0.82;0.60;;;13.50;99.90;;;;;;2064725;28;20188;-68
2021/07/09 00:21:08;;;;;;;0.63;0.63;;;13.50;99.90;;;;;;2064775;28;20222;-68
2021/07/09 00:22:09;;;;;;;0.50;0.50;;;13.50;99.90;;;;;;2064750;28;20279;-68
2021/07/09 00:23:10;;;;;;;0.90;0.90;;;13.50;99.90;;;;;;2064961;28;20178;-68
2021/07/09 00:24:12;;;;;;;0.73;0.70;;;13.40;99.90;;;;;;2064776;28;20573;-68
2021/07/09 00:25:13;;;;;;;0.47;0.47;;;13.40;99.90;;;;;;2056200;28;20210;-68
2021/07/09 00:26:14;;;;;;;0.43;0.43;;;13.40;99.90;;;;;;2056270;28;20558;-68
2021/07/09 00:27:15;;;;;;;0.43;0.43;;;13.40;99.90;;;;;;2064804;28;20380;-68
2021/07/09 00:28:15;;;;;;;0.50;0.50;;;13.30;99.90;;;;;;2064722;28;20183;-68
2021/07/09 00:29:16;;;;;;;0.60;0.50;;;13.40;99.90;;;;;;2056241;28;20175;-69
2021/07/09 00:30:17;;;;;;;0.67;0.43;;;13.30;99.90;;;;;;2055884;28;20699;-68
2021/07/09 00:31:17;;;;;;;0.80;0.80;;;13.30;99.90;;;;;;2064685;28;20201;-68
2021/07/09 00:32:18;;;;;;;0.77;0.77;;;13.30;99.90;;;;;;2064316;28;20238;-68
2021/07/09 00:33:19;;;;;;;0.87;0.60;;;13.30;99.90;;;;;;2064812;28;20587;-68
2021/07/09 00:34:20;;;;;;;0.83;0.83;;;13.30;99.90;;;;;;2055890;28;20185;-67
2021/07/09 00:35:21;;;;;;;0.70;0.70;;;13.30;99.90;;;;;;2056123;28;20223;-67
2021/07/09 00:36:22;;;;;;;0.60;0.60;;;13.30;99.90;;;;;;2064623;28;20189;-67
2021/07/09 00:37:23;;;;;;;0.80;0.80;;;13.30;99.90;;;;;;2064046;28;20269;-69
2021/07/09 00:38:23;;;;;;;0.57;0.43;;;13.30;99.90;;;;;;2064082;28;20225;-68
2021/07/09 00:39:24;;;;;;;0.73;0.73;;;13.20;99.90;;;;;;2064985;28;20174;-68
2021/07/09 00:40:25;;;;;;;0.77;0.77;;;13.30;99.90;;;;;;2063687;28;20677;-68
2021/07/09 00:41:25;;;;;;;4.40;0.87;;;13.30;99.90;;;;;;2064039;28;20186;-68
2021/07/09 00:42:26;;;;;;;0.70;0.50;;;13.30;99.90;;;;;;2064517;28;20202;-68
2021/07/09 00:43:27;;;;;;;1.00;1.00;;;13.30;99.90;;;;;;2064660;28;20559;-67
2021/07/09 00:44:27;;;;;;;0.40;0.40;;;13.30;99.90;;;;;;2064612;28;20186;-68
2021/07/09 00:45:28;;;;;;;0.70;0.70;;;13.30;99.90;;;;;;2064601;28;20175;-68
2021/07/09 00:46:31;;;;;;;0.57;0.57;;;13.30;99.90;;;;;;2064484;28;20189;-68
2021/07/09 00:47:32;;;;;;;0.60;0.60;;;13.30;99.90;;;;;;2064913;28;20952;-68
2021/07/09 00:48:34;;;;;;;1.03;0.93;;;13.30;99.90;;;;;;2064908;28;20186;-68
2021/07/09 00:49:34;;;;;;;0.50;0.50;;;13.30;99.90;;;;;;2064057;28;20170;-69
2021/07/09 00:50:35;;;;;;;0.50;0.50;;;13.30;99.90;;;;;;2063734;28;20178;-68
2021/07/09 00:51:36;;;;;;;0.30;0.30;;;13.30;99.90;;;;;;2063950;28;20261;-68
2021/07/09 00:52:37;;;;;;;1.45;0.77;;;13.40;99.90;;;;;;2055868;28;20207;-70
2021/07/09 00:53:38;;;;;;;0.50;0.50;;;13.30;99.90;;;;;;2056016;28;20175;-69
2021/07/09 00:54:39;;;;;;;0.50;0.50;;;13.30;99.90;;;;;;2063874;28;20182;-69
2021/07/09 00:55:39;;;;;;;0.60;0.50;;;13.30;99.90;;;;;;2064691;28;20175;-69
2021/07/09 00:56:40;;;;;;;1.80;0.80;;;13.30;99.90;;;;;;2047752;28;20187;-69
2021/07/09 00:57:46;;;;;;;1.00;0.70;;;13.30;99.90;;;;;;2040121;29;20177;-69
2021/07/09 00:58:49;;;;;;;0.80;0.52;;;13.30;99.90;;;;;;2056459;28;20175;-69
2021/07/09 00:59:49;;;;;;;0.57;0.57;;;13.30;99.90;;;;;;2064677;28;20237;-69
2021/07/09 01:00:50;;;;;;;0.60;0.50;;;13.30;99.90;;;;;;2064232;28;20183;-68
2021/07/09 01:01:59;;;;;;;0.97;0.87;;;13.30;99.90;;;;;;2064631;28;20261;-69
2021/07/09 01:02:59;;;;;;;0.50;0.50;;;13.20;99.90;;;;;;2064445;28;20410;-69
2021/07/09 01:04:01;;;;;;;0.40;0.40;;;13.20;99.90;;;;;;2064770;28;20181;-69
2021/07/09 01:05:05;;;;;;;0.60;0.55;;;13.20;99.90;;;;;;2055901;28;20294;-69
2021/07/09 01:06:06;;;;;;;0.75;0.70;;;13.20;99.90;;;;;;2048539;28;20570;-69
2021/07/09 01:07:07;;;;;;;0.93;0.60;;;13.20;99.90;;;;;;2058354;28;20249;-69
2021/07/09 01:08:07;;;;;;;0.40;0.40;;;13.20;99.90;;;;;;2064845;28;20189;-69
2021/07/09 01:09:08;;;;;;;0.70;0.70;;;13.20;99.90;;;;;;2056420;28;20186;-69
2021/07/09 01:10:16;;;;;;;0.60;0.60;;;13.20;99.90;;;;;;2052883;28;20375;-70
2021/07/09 01:11:20;;;;;;;0.75;0.75;;;13.20;99.90;;;;;;2056273;28;20314;-69
2021/07/09 01:12:21;;;;;;;0.60;0.60;;;13.20;99.90;;;;;;2056114;28;20211;-69
2021/07/09 01:13:21;;;;;;;0.37;0.37;;;13.20;99.90;;;;;;2048225;29;20685;-69
2021/07/09 01:14:23;;;;;;;0.80;0.80;;;13.20;99.90;;;;;;2048260;29;20445;-69
2021/07/09 01:15:24;;;;;;;0.50;0.50;;;13.10;99.90;;;;;;2056555;28;20630;-69
2021/07/09 01:16:24;;;;;;;2.50;0.70;;;13.10;99.90;;;;;;2048080;29;20187;-70
2021/07/09 01:17:25;;;;;;;0.83;0.83;;;13.10;99.90;;;;;;2048167;29;20367;-69
2021/07/09 01:18:26;;;;;;;0.47;0.47;;;13.10;99.90;;;;;;2048107;29;20184;-70
2021/07/09 01:19:27;;;;;;;0.73;0.73;;;13.10;99.90;;;;;;2048127;29;20242;-69
2021/07/09 01:20:28;;;;;;;0.55;0.55;;;13.00;99.90;;;;;;2047683;29;20183;-68
2021/07/09 01:21:29;;;;;;;0.37;0.37;;;13.00;99.90;;;;;;2048196;28;20235;-69
2021/07/09 01:22:31;;;;;;;2.00;0.80;;;12.90;99.90;;;;;;2048023;28;20269;-69
2021/07/09 01:23:34;;;;;;;0.80;0.75;;;12.90;99.90;;;;;;2048378;28;20211;-69
2021/07/09 01:24:38;;;;;;;0.40;0.40;;;12.90;99.90;;;;;;2047827;29;20263;-69
2021/07/09 01:25:39;;;;;;;0.40;0.40;;;12.90;99.90;;;;;;2048373;28;20180;-69
2021/07/09 01:26:41;;;;;;;1.23;1.13;;;12.90;99.90;;;;;;2056269;28;20177;-69
2021/07/09 01:27:44;;;;;;;0.65;0.65;;;12.90;99.90;;;;;;2056660;28;20266;-69
2021/07/09 01:28:45;;;;;;;1.70;0.85;;;12.90;99.90;;;;;;2056693;28;20186;-69
2021/07/09 01:29:47;;;;;;;0.50;0.50;;;12.90;99.90;;;;;;2058000;28;20175;-69
2021/07/09 01:30:48;;;;;;;0.98;0.85;;;12.80;99.90;;;;;;2049126;29;20243;-69
2021/07/09 01:31:48;;;;;;;0.60;0.60;;;12.80;99.90;;;;;;2041432;29;20267;-69
2021/07/09 01:32:50;;;;;;;0.97;0.97;;;12.80;99.90;;;;;;2049175;28;20234;-68
2021/07/09 01:33:51;;;;;;;2.70;0.80;;;12.80;99.90;;;;;;2058111;28;20175;-69
2021/07/09 01:34:52;;;;;;;0.50;0.50;;;12.90;99.90;;;;;;2057853;28;20179;-69
2021/07/09 01:35:53;;;;;;;0.83;0.83;;;12.90;99.90;;;;;;2057995;28;20192;-68
2021/07/09 01:37:14;;;;;;;0.75;0.75;;;12.90;99.90;;;;;;2049193;29;20179;-69
2021/07/09 01:38:15;;;;;;;0.57;0.57;;;12.90;99.90;;;;;;2052128;28;20171;-69
2021/07/09 01:39:17;;;;;;;0.90;0.90;;;12.90;99.90;;;;;;2057318;28;20278;-69
2021/07/09 01:40:17;;;;;;;0.63;0.63;;;12.90;99.90;;;;;;2049285;29;20206;-69
2021/07/09 01:41:20;;;;;;;0.67;0.67;;;12.90;99.90;;;;;;2049220;28;20187;-69
2021/07/09 01:42:20;;;;;;;0.57;0.57;;;12.90;99.90;;;;;;2057794;28;20213;-69
2021/07/09 01:43:23;;;;;;;0.83;0.57;;;13.00;99.90;;;;;;2057847;28;20641;-69
2021/07/09 01:44:24;;;;;;;0.65;0.65;;;12.90;99.90;;;;;;2057970;28;20179;-68
2021/07/09 01:45:26;;;;;;;0.93;0.93;;;12.90;99.90;;;;;;2057859;28;20274;-68
2021/07/09 01:46:27;;;;;;;0.45;0.45;;;12.90;99.90;;;;;;2049214;29;20188;-68
2021/07/09 01:47:27;;;;;;;0.83;0.83;;;12.90;99.90;;;;;;2041203;29;20196;-68
2021/07/09 01:48:28;;;;;;;0.90;0.90;;;12.80;99.90;;;;;;2049472;29;20184;-68
2021/07/09 01:49:29;;;;;;;0.60;0.60;;;12.80;99.90;;;;;;2057636;28;20596;-68
2021/07/09 01:50:30;;;;;;;0.50;0.50;;;12.90;99.90;;;;;;2057626;28;20241;-68
2021/07/09 01:51:31;;;;;;;0.80;0.80;;;12.80;99.90;;;;;;2049194;29;20191;-68
2021/07/09 01:52:33;;;;;;;0.70;0.70;;;12.90;99.90;;;;;;2049433;28;20276;-68
2021/07/09 01:53:34;;;;;;;0.88;0.82;;;12.80;99.90;;;;;;2057743;28;20186;-68
2021/07/09 01:54:36;;;;;;;1.37;0.90;;;12.80;99.90;;;;;;2057814;28;20261;-68
2021/07/09 01:55:37;;;;;;;0.75;0.63;;;12.80;99.90;;;;;;2057657;28;20411;-68
2021/07/09 01:56:37;;;;;;;0.67;0.67;;;12.80;99.90;;;;;;2049335;29;20176;-68
2021/07/09 01:57:40;;;;;;;1.07;1.07;;;12.70;99.90;;;;;;2049152;29;20652;-67
2021/07/09 01:58:40;;;;;;;0.70;0.70;;;12.70;99.90;;;;;;2057890;28;20172;-67
2021/07/09 01:59:42;;;;;;;4.23;0.93;;;12.80;99.90;;;;;;2057779;28;20262;-68
2021/07/09 02:00:43;;;;;;;1.73;0.73;;;12.70;99.90;;;;;;2049088;29;20639;-68
2021/07/09 02:01:43;;;;;;;0.60;0.60;;;12.80;99.90;;;;;;2049136;29;20255;-67
2021/07/09 02:02:44;;;;;;;1.77;0.97;;;12.80;99.90;;;;;;2057768;28;20285;-68
2021/07/09 02:03:45;;;;;;;0.65;0.65;;;12.80;99.90;;;;;;2049120;29;20240;-68
2021/07/09 02:04:53;;;;;;;0.80;0.80;;;12.80;99.90;;;;;;2048132;28;20293;-68
2021/07/09 02:05:54;;;;;;;1.00;1.00;;;12.80;99.90;;;;;;2061418;28;20188;-68
2021/07/09 02:06:55;;;;;;;0.40;0.40;;;12.80;99.90;;;;;;2058960;28;20219;-68
2021/07/09 02:07:57;;;;;;;1.00;1.00;;;12.70;99.90;;;;;;2065918;28;20170;-68
2021/07/09 02:08:57;;;;;;;1.85;0.93;;;12.70;99.90;;;;;;2048891;28;20188;-68
2021/07/09 02:09:58;;;;;;;0.67;0.67;;;12.70;99.90;;;;;;2049205;28;20172;-68
2021/07/09 02:10:59;;;;;;;0.77;0.77;;;12.80;99.90;;;;;;2065553;28;20546;-68
2021/07/09 02:12:00;;;;;;;0.60;0.60;;;12.80;99.90;;;;;;2065251;28;20265;-68
2021/07/09 02:13:02;;;;;;;0.40;0.40;;;12.80;99.90;;;;;;2065194;28;20237;-68
2021/07/09 02:14:03;;;;;;;0.57;0.57;;;12.80;99.90;;;;;;2065202;28;20187;-68
2021/07/09 02:15:14;;;;;;;0.83;0.83;;;12.80;99.90;;;;;;2065378;28;20262;-68
2021/07/09 02:16:14;;;;;;;0.70;0.70;;;12.80;99.90;;;;;;2065888;28;20217;-67
2021/07/09 02:17:18;;;;;;;0.60;0.60;;;12.80;99.90;;;;;;2057006;28;20277;-67
2021/07/09 02:18:19;;;;;;;2.15;1.55;;;12.80;99.90;;;;;;2057584;28;20191;-68
2021/07/09 02:19:20;;;;;;;0.90;0.90;;;12.80;99.90;;;;;;2065025;28;20193;-68
2021/07/09 02:20:24;;;;;;;0.70;0.50;;;12.80;99.90;;;;;;2065012;28;20185;-68
2021/07/09 02:21:25;;;;;;;1.13;0.63;;;12.80;99.90;;;;;;2064978;28;20234;-67
2021/07/09 02:22:28;;;;;;;0.50;0.50;;;12.80;99.90;;;;;;2065072;28;20253;-68
2021/07/09 02:23:28;;;;;;;0.88;0.88;;;12.80;99.90;;;;;;2065574;28;20186;-68
2021/07/09 02:24:32;;;;;;;0.70;0.70;;;12.90;99.90;;;;;;2065629;28;20179;-67
2021/07/09 02:25:33;;;;;;;0.65;0.65;;;12.90;99.90;;;;;;2056881;28;20186;-68
2021/07/09 02:26:33;;;;;;;1.20;1.00;;;12.90;99.90;;;;;;2056959;28;20278;-68
2021/07/09 02:27:44;;;;;;;0.93;0.93;;;12.90;99.90;;;;;;2065461;28;20448;-68
2021/07/09 02:28:45;;;;;;;0.43;0.43;;;12.90;99.90;;;;;;2057042;28;20167;-68
2021/07/09 02:29:46;;;;;;;1.13;1.07;;;12.90;99.90;;;;;;2057342;28;20171;-68
2021/07/09 02:30:46;;;;;;;0.87;0.87;;;12.90;99.90;;;;;;2065570;28;20179;-68
2021/07/09 02:31:47;;;;;;;1.73;0.83;;;12.90;99.90;;;;;;2065480;28;20178;-68
2021/07/09 02:32:49;;;;;;;0.40;0.40;;;12.90;99.90;;;;;;2065464;28;20206;-68
2021/07/09 02:33:50;;;;;;;0.57;0.57;;;12.90;99.90;;;;;;2056809;28;20187;-68
2021/07/09 02:34:50;;;;;;;0.53;0.53;;;12.90;99.90;;;;;;2056927;28;20183;-68
2021/07/09 02:35:51;;;;;;;0.67;0.67;;;12.90;99.90;;;;;;2064831;28;20206;-68
2021/07/09 02:36:52;;;;;;;0.87;0.87;;;13.00;99.90;;;;;;2065619;28;20206;-68
2021/07/09 02:37:54;;;;;;;0.70;0.70;;;13.00;99.90;;;;;;2064923;28;20726;-68
2021/07/09 02:38:54;;;;;;;0.52;0.52;;;13.00;99.90;;;;;;2064894;28;20197;-68
2021/07/09 02:39:56;;;;;;;1.03;1.03;;;13.10;99.90;;;;;;2056506;28;20274;-68
2021/07/09 02:40:57;;;;;;;1.10;1.10;;;13.10;99.90;;;;;;2056761;28;20198;-67
2021/07/09 02:41:59;;;;;;;0.80;0.80;;;13.10;99.90;;;;;;2065433;28;20178;-68
2021/07/09 02:43:03;;;;;;;0.65;0.65;;;13.10;99.90;;;;;;2065604;28;20583;-68
2021/07/09 02:44:05;;;;;;;0.80;0.80;;;13.10;99.90;;;;;;2065714;28;20183;-68
2021/07/09 02:45:08;;;;;;;0.65;0.65;;;13.00;99.90;;;;;;2065658;28;20190;-68
2021/07/09 02:46:08;;;;;;;1.23;1.08;;;13.00;99.90;;;;;;2065763;28;20189;-68
2021/07/09 02:47:09;;;;;;;0.63;0.63;;;13.00;99.90;;;;;;2064848;28;20597;-67
2021/07/09 02:48:10;;;;;;;1.30;1.20;;;13.00;99.90;;;;;;2048670;29;20270;-68
2021/07/09 02:49:11;;;;;;;0.70;0.70;;;13.00;99.90;;;;;;2048740;29;20202;-68
2021/07/09 02:50:16;;;;;;;0.83;0.53;;;13.00;99.90;;;;;;2065225;28;20190;-68
2021/07/09 02:51:17;;;;;;;1.63;1.10;;;13.00;99.90;;;;;;2065300;28;20178;-68
2021/07/09 02:52:17;;;;;;;0.63;0.63;;;13.10;99.90;;;;;;2056750;28;20194;-68
2021/07/09 02:53:18;;;;;;;0.40;0.40;;;13.00;99.90;;;;;;2056714;28;20209;-68
2021/07/09 02:54:19;;;;;;;1.00;0.70;;;13.00;99.90;;;;;;2065342;28;20174;-68
2021/07/09 02:55:22;;;;;;;0.57;0.57;;;13.00;99.90;;;;;;2065237;28;20178;-68
2021/07/09 02:56:23;;;;;;;0.73;0.68;;;13.10;99.90;;;;;;2056815;28;20266;-68
2021/07/09 02:57:23;;;;;;;0.93;0.87;;;13.00;99.90;;;;;;2056808;28;20588;-67
2021/07/09 02:58:24;;;;;;;0.93;0.83;;;13.00;99.90;;;;;;2065350;28;20178;-68
2021/07/09 02:59:25;;;;;;;0.77;0.77;;;13.00;99.90;;;;;;2065254;28;20222;-68
2021/07/09 03:00:26;;;;;;;0.60;0.60;;;13.00;99.90;;;;;;2065239;28;20594;-67
2021/07/09 03:01:26;;;;;;;0.80;0.73;;;13.00;99.90;;;;;;2065252;28;20179;-68
2021/07/09 03:02:27;;;;;;;0.90;0.90;;;12.90;99.90;;;;;;2065297;28;20233;-68
2021/07/09 03:03:28;;;;;;;0.77;0.77;;;13.00;99.90;;;;;;2065148;28;20667;-67
2021/07/09 03:04:28;;;;;;;1.17;0.67;;;13.00;99.90;;;;;;2065278;28;20183;-67
2021/07/09 03:05:29;;;;;;;0.63;0.63;;;13.10;99.90;;;;;;2065259;28;20197;-68
2021/07/09 03:06:30;;;;;;;0.50;0.50;;;13.10;99.90;;;;;;2065320;28;20178;-67
2021/07/09 03:07:30;;;;;;;0.90;0.90;;;13.10;99.90;;;;;;2065007;28;20262;-67
2021/07/09 03:08:31;;;;;;;0.97;0.90;;;13.10;99.90;;;;;;2065328;28;20267;-67
2021/07/09 03:09:32;;;;;;;1.10;0.80;;;13.10;99.90;;;;;;2065350;28;20186;-70
2021/07/09 03:10:32;;;;;;;1.03;0.83;;;13.10;99.90;;;;;;2067484;28;20182;-69
2021/07/09 03:11:34;;;;;;;0.80;0.80;;;13.10;99.90;;;;;;2065157;28;20556;-69
2021/07/09 03:12:36;;;;;;;0.60;0.60;;;13.20;99.90;;;;;;2064643;28;20203;-66
2021/07/09 03:13:37;;;;;;;1.48;0.93;;;13.20;99.90;;;;;;2056554;28;20819;-69
2021/07/09 03:14:37;;;;;;;1.40;1.30;;;13.20;99.90;;;;;;2056757;28;20187;-69
2021/07/09 03:15:38;;;;;;;1.00;1.00;;;13.20;99.90;;;;;;2056454;28;20522;-69
2021/07/09 03:16:39;;;;;;;0.50;0.50;;;13.20;99.90;;;;;;2056662;28;20179;-69
2021/07/09 03:17:40;;;;;;;0.40;0.40;;;13.20;99.90;;;;;;2064331;28;20190;-68
2021/07/09 03:18:40;;;;;;;0.53;0.53;;;13.20;99.90;;;;;;2064672;28;20213;-69
2021/07/09 03:19:41;;;;;;;1.33;1.03;;;13.20;99.90;;;;;;2064520;28;20810;-69
2021/07/09 03:20:42;;;;;;;1.97;0.90;;;13.20;99.90;;;;;;2064543;28;20183;-69
2021/07/09 03:21:42;;;;;;;0.73;0.73;;;13.10;99.90;;;;;;2064535;28;20175;-68
2021/07/09 03:22:44;;;;;;;0.70;0.70;;;13.20;99.90;;;;;;2064504;28;20213;-69
2021/07/09 03:23:44;;;;;;;1.10;0.70;;;13.20;99.90;;;;;;2064393;28;20242;-71
2021/07/09 03:24:45;;;;;;;0.70;0.70;;;13.20;99.90;;;;;;2064707;28;20281;-68
2021/07/09 03:25:46;;;;;;;0.40;0.40;;;13.10;99.90;;;;;;2065134;28;20174;-69
2021/07/09 03:26:47;;;;;;;1.17;1.07;;;13.10;99.90;;;;;;2065034;28;20222;-69
2021/07/09 03:27:47;;;;;;;0.60;0.50;;;13.10;99.90;;;;;;2064939;28;20257;-69
2021/07/09 03:28:48;;;;;;;0.70;0.70;;;13.10;99.90;;;;;;2064984;28;20178;-68
2021/07/09 03:29:49;;;;;;;0.60;0.60;;;13.00;99.90;;;;;;2065126;28;20175;-69
2021/07/09 03:30:49;;;;;;;0.60;0.60;;;13.00;99.90;;;;;;2064882;28;20517;-68
2021/07/09 03:31:50;;;;;;;0.60;0.60;;;13.00;99.90;;;;;;2065083;28;20171;-68
2021/07/09 03:32:51;;;;;;;0.60;0.60;;;13.00;99.90;;;;;;2064736;28;20209;-69
2021/07/09 03:33:52;;;;;;;3.10;1.13;;;13.00;99.90;;;;;;2065218;28;20241;-69
2021/07/09 03:34:52;;;;;;;1.07;1.07;;;13.00;99.90;;;;;;2065116;28;20175;-69
2021/07/09 03:35:53;;;;;;;0.60;0.60;;;13.00;99.90;;;;;;2065050;28;20236;-69
2021/07/09 03:36:54;;;;;;;0.57;0.57;;;13.10;99.90;;;;;;2064969;28;20189;-68
2021/07/09 03:37:55;;;;;;;0.63;0.63;;;13.10;99.90;;;;;;2064483;28;20189;-69
2021/07/09 03:38:57;;;;;;;0.40;0.40;;;13.10;99.90;;;;;;2064298;28;20190;-69
2021/07/09 03:39:58;;;;;;;0.68;0.68;;;13.10;99.90;;;;;;2064152;28;20193;-69
2021/07/09 03:40:58;;;;;;;0.80;0.80;;;13.10;99.90;;;;;;2064043;28;20523;-69
2021/07/09 03:41:59;;;;;;;1.00;0.90;;;13.10;99.90;;;;;;2064786;28;20226;-69
2021/07/09 03:43:00;;;;;;;0.60;0.60;;;13.10;99.90;;;;;;2064108;28;20186;-69
2021/07/09 03:44:00;;;;;;;0.43;0.43;;;13.10;99.90;;;;;;2064279;28;20186;-69
2021/07/09 03:45:01;;;;;;;0.70;0.70;;;13.10;99.90;;;;;;2064650;28;20182;-69
2021/07/09 03:46:02;;;;;;;0.70;0.70;;;13.10;99.90;;;;;;2064879;28;20178;-69
2021/07/09 03:47:03;;;;;;;1.30;1.03;;;13.10;99.90;;;;;;2064589;28;20298;-69
2021/07/09 03:48:05;;;;;;;0.53;0.53;;;13.10;99.90;;;;;;2064812;28;20332;-69
2021/07/09 03:49:07;;;;;;;1.02;0.93;;;13.10;99.90;;;;;;2064728;28;20190;-69
2021/07/09 03:50:09;;;;;;;0.90;0.90;;;13.10;99.90;;;;;;2055879;28;20186;-69
2021/07/09 03:51:09;;;;;;;0.75;0.75;;;13.10;99.90;;;;;;2056064;28;20221;-69
2021/07/09 03:52:10;;;;;;;0.60;0.60;;;13.10;99.90;;;;;;2064358;28;20542;-69
2021/07/09 03:53:11;;;;;;;1.63;0.87;;;13.10;99.90;;;;;;2064078;28;20233;-69
2021/07/09 03:54:12;;;;;;;0.83;0.83;;;13.10;99.90;;;;;;2064247;28;20205;-68
2021/07/09 03:55:14;;;;;;;0.68;0.68;;;13.10;99.90;;;;;;2064518;28;20658;-69
2021/07/09 03:56:15;;;;;;;1.23;1.05;;;13.00;99.90;;;;;;2064033;28;20193;-68
2021/07/09 03:57:15;;;;;;;0.87;0.67;;;13.00;99.90;;;;;;2064085;28;20705;-69
2021/07/09 03:58:16;;;;;;;0.70;0.70;;;13.00;99.90;;;;;;2064776;28;20269;-69
2021/07/09 03:59:17;;;;;;;0.83;0.80;;;13.00;99.90;;;;;;2064104;28;20183;-69
2021/07/09 04:00:18;;;;;;;0.80;0.80;;;13.00;99.90;;;;;;2063958;28;20649;-68
2021/07/09 04:01:19;;;;;;;2.53;1.10;;;13.10;99.90;;;;;;2065518;28;20189;-68
2021/07/09 04:02:19;;;;;;;1.37;1.27;;;13.10;99.90;;;;;;2065992;28;20202;-68
2021/07/09 04:03:20;;;;;;;1.33;1.23;;;13.10;99.90;;;;;;2065951;28;20242;-68
2021/07/09 04:04:21;;;;;;;0.70;0.70;;;13.10;99.90;;;;;;2066151;28;20265;-68
2021/07/09 04:05:21;;;;;;;0.60;0.60;;;13.10;99.90;;;;;;2058454;28;20274;-68
2021/07/09 04:06:22;;;;;;;0.50;0.50;;;13.10;99.90;;;;;;2057675;28;20183;-68
2021/07/09 04:07:23;;;;;;;0.97;0.97;;;13.20;99.90;;;;;;2057702;28;20207;-68
2021/07/09 04:08:23;;;;;;;0.73;0.73;;;13.20;99.90;;;;;;2057933;28;20243;-68
2021/07/09 04:09:24;;;;;;;0.77;0.77;;;13.10;99.90;;;;;;2057942;28;20717;-68
2021/07/09 04:10:25;;;;;;;0.77;0.77;;;13.10;99.90;;;;;;2057546;28;20179;-68
2021/07/09 04:11:25;;;;;;;0.50;0.50;;;13.10;99.90;;;;;;2057886;28;20447;-68
2021/07/09 04:12:26;;;;;;;0.70;0.70;;;13.00;99.90;;;;;;2057100;28;20194;-68
2021/07/09 04:13:27;;;;;;;0.60;0.60;;;13.00;99.90;;;;;;2049259;29;20274;-68
2021/07/09 04:14:28;;;;;;;7.23;0.97;;;13.00;99.90;;;;;;2049214;29;20176;-68
2021/07/09 04:15:28;;;;;;;0.90;0.87;;;13.00;99.90;;;;;;2056318;28;20559;-68
2021/07/09 04:16:29;;;;;;;0.53;0.53;;;12.90;99.90;;;;;;2056395;28;20547;-68
2021/07/09 04:17:30;;;;;;;0.70;0.70;;;13.00;99.90;;;;;;2057120;28;20318;-68
2021/07/09 04:18:31;;;;;;;0.90;0.90;;;13.00;99.90;;;;;;2056976;28;20655;-68
2021/07/09 04:19:32;;;;;;;0.43;0.43;;;12.90;99.90;;;;;;2057121;28;20375;-68
2021/07/09 04:20:33;;;;;;;0.70;0.70;;;13.00;99.90;;;;;;2056546;28;20673;-68
2021/07/09 04:21:33;;;;;;;0.90;0.90;;;13.00;99.90;;;;;;2057031;28;20206;-68
2021/07/09 04:22:34;;;;;;;0.93;0.93;;;13.00;99.90;;;;;;2056123;28;20609;-68
2021/07/09 04:23:35;;;;;;;0.77;0.77;;;13.00;99.90;;;;;;2048427;29;20351;-69
2021/07/09 04:24:36;;;;;;;1.27;1.20;;;13.00;99.90;;;;;;2040378;29;20185;-69
2021/07/09 04:25:36;;;;;;;0.50;0.50;;;13.00;99.90;;;;;;2048555;29;20179;-68
2021/07/09 04:26:37;;;;;;;0.57;0.57;;;13.00;99.90;;;;;;2056796;28;20271;-68
2021/07/09 04:27:40;;;;;;;0.40;0.40;;;13.00;99.90;;;;;;2056866;28;20558;-69
2021/07/09 04:28:41;;;;;;;0.73;0.73;;;13.10;99.90;;;;;;2056970;28;20182;-68
2021/07/09 04:29:42;;;;;;;0.60;0.60;;;13.00;99.90;;;;;;2056975;28;20175;-68
2021/07/09 04:30:42;;;;;;;0.83;0.83;;;13.10;99.90;;;;;;2056646;28;20182;-68
2021/07/09 04:31:43;;;;;;;1.03;0.83;;;13.10;99.90;;;;;;2056949;28;20170;-69
2021/07/09 04:32:44;;;;;;;1.60;1.17;;;13.10;99.90;;;;;;2057752;28;20195;-69
2021/07/09 04:33:47;;;;;;;0.50;0.50;;;13.10;99.90;;;;;;2057574;28;20167;-68
2021/07/09 04:34:48;;;;;;;0.80;0.80;;;13.10;99.90;;;;;;2057461;28;20186;-69
2021/07/09 04:35:50;;;;;;;1.03;0.83;;;13.10;99.90;;;;;;2058056;28;20563;-68
2021/07/09 04:36:51;;;;;;;1.35;0.85;;;13.20;99.90;;;;;;2057997;28;20175;-68
2021/07/09 04:37:52;;;;;;;1.17;1.07;;;13.20;99.90;;;;;;2058122;28;20171;-69
2021/07/09 04:38:53;;;;;;;1.00;1.00;;;13.20;99.90;;;;;;2057919;28;20191;-69
2021/07/09 04:39:53;;;;;;;0.40;0.40;;;13.20;99.90;;;;;;2049610;29;21079;-69
2021/07/09 04:40:54;;;;;;;1.00;0.90;;;13.10;99.90;;;;;;2049034;29;20191;-68
2021/07/09 04:41:55;;;;;;;0.73;0.73;;;13.10;99.90;;;;;;2049552;28;20195;-68
2021/07/09 04:42:56;;;;;;;0.60;0.60;;;13.10;99.90;;;;;;2049378;29;20180;-68
2021/07/09 04:43:56;;;;;;;0.87;0.70;;;13.10;99.90;;;;;;2058136;28;20179;-68
2021/07/09 04:44:57;;;;;;;0.50;0.50;;;13.20;99.90;;;;;;2057967;28;20189;-69
2021/07/09 04:45:58;;;;;;;0.87;0.87;;;13.20;99.90;;;;;;2058053;28;20677;-69
2021/07/09 04:46:58;;;;;;;1.77;0.77;;;13.10;99.90;;;;;;2058045;28;20206;-68
2021/07/09 04:47:59;;;;;;;0.97;0.97;;;13.10;99.90;;;;;;2057873;28;20202;-68
2021/07/09 04:49:00;;;;;;;1.00;1.00;;;13.00;99.90;;;;;;2057890;28;20221;-68
2021/07/09 04:50:01;;;;;;;1.83;1.37;;;13.00;99.90;;;;;;2057801;28;20644;-67
2021/07/09 04:51:02;;;;;;;0.43;0.43;;;13.00;99.90;;;;;;2057903;28;20643;-68
2021/07/09 04:52:03;;;;;;;0.65;0.65;;;13.00;99.90;;;;;;2057760;28;20194;-69
2021/07/09 04:53:04;;;;;;;0.80;0.80;;;13.10;99.90;;;;;;2058249;28;20187;-69
2021/07/09 04:54:05;;;;;;;0.70;0.70;;;13.10;99.90;;;;;;2058078;28;20186;-69
2021/07/09 04:55:06;;;;;;;1.00;1.00;;;13.10;99.90;;;;;;2057949;28;20174;-69
2021/07/09 04:56:07;;;;;;;0.73;0.73;;;13.10;99.90;;;;;;2057262;28;20183;-68
2021/07/09 04:57:08;;;;;;;0.97;0.97;;;13.10;99.90;;;;;;2057443;28;20608;-68
2021/07/09 04:58:08;;;;;;;0.60;0.60;;;13.10;99.90;;;;;;2049192;29;20186;-69
2021/07/09 04:59:09;;;;;;;1.67;1.10;;;13.10;99.90;;;;;;2049617;29;20242;-68
2021/07/09 05:00:10;;;;;;;0.40;0.40;;;13.10;99.90;;;;;;2048917;29;20179;-68
2021/07/09 05:01:12;;;;;;;0.60;0.60;;;13.20;99.90;;;;;;2049589;28;20218;-68
2021/07/09 05:02:12;;;;;;;0.68;0.68;;;13.20;99.90;;;;;;2057889;28;20258;-68
2021/07/09 05:03:13;;;;;;;0.80;0.80;;;13.20;99.90;;;;;;2058177;28;20653;-68
2021/07/09 05:04:14;;;;;;;0.40;0.40;;;13.30;99.90;;;;;;2059137;28;20179;-68
2021/07/09 05:05:15;;;;;;;0.80;0.80;;;13.20;99.90;;;;;;2059696;28;20507;-68
2021/07/09 05:06:16;;;;;;;0.40;0.40;;;13.30;99.90;;;;;;2059504;28;20286;-68
2021/07/09 05:07:17;;;;;;;0.80;0.80;;;13.30;99.90;;;;;;2059118;28;20850;-68
2021/07/09 05:08:17;;;;;;;0.50;0.50;;;13.30;99.90;;;;;;2061301;28;20187;-68
2021/07/09 05:09:18;;;;;;;0.40;0.40;;;13.30;99.90;;;;;;2059731;28;20207;-69
2021/07/09 05:10:19;;;;;;;1.77;0.80;;;13.30;99.90;;;;;;2058512;28;20182;-68
2021/07/09 05:11:19;;;;;;;0.77;0.77;;;13.30;99.90;;;;;;2058990;28;20179;-68
2021/07/09 05:12:20;;;;;;;0.73;0.73;;;13.30;99.90;;;;;;2059369;28;20195;-68
2021/07/09 05:13:21;;;;;;;0.70;0.70;;;13.30;99.90;;;;;;2059576;28;20211;-68
2021/07/09 05:14:22;;;;;;;0.70;0.70;;;13.30;99.90;;;;;;2059472;28;20557;-69
2021/07/09 05:15:23;;;;;;;0.73;0.73;;;13.40;99.90;;;;;;2059023;28;20217;-69
2021/07/09 05:16:23;;;;;;;0.93;0.80;;;13.40;99.90;;;;;;2058893;28;20182;-68
2021/07/09 05:17:24;;;;;;;0.50;0.50;;;13.40;99.90;;;;;;2068658;28;20210;-68
2021/07/09 05:18:25;;;;;;;1.00;1.00;;;13.40;99.90;;;;;;2067037;28;20182;-69
2021/07/09 05:19:25;;;;;;;0.70;0.70;;;13.50;99.90;;;;;;2059513;28;20745;-68